Time;durP1;ratioP1;P1;durP2;ratioP2;P2;SDS_P1;SDS_P2;PMS_P1;PMS_P2;Temp;Humidity;BMP_temperature;BMP_pressure;BME280_temperature;BME280_humidity;BME280_pressure;Samples;Min_cycle;Max_cycle;Signal;HPM_P1;HPM_P2
2022/03/10 00:02:09;;;;;;;8.48;1.40;;;10.00;95.60;;;;;;5058509;28;20043;-48
2022/03/10 00:04:36;;;;;;;9.75;1.48;;;10.00;95.50;;;;;;5058238;28;20029;-47
2022/03/10 00:07:03;;;;;;;9.25;1.55;;;10.00;95.50;;;;;;5058309;28;20488;-48
2022/03/10 00:09:30;;;;;;;16.42;2.20;;;10.00;95.50;;;;;;5058594;28;20025;-49
2022/03/10 00:11:56;;;;;;;12.15;1.95;;;10.00;95.50;;;;;;5058183;28;20075;-50
2022/03/10 00:14:22;;;;;;;7.50;1.80;;;9.90;95.60;;;;;;5058404;28;20457;-48
2022/03/10 00:16:49;;;;;;;13.50;1.77;;;9.90;95.60;;;;;;5058073;28;20025;-48
2022/03/10 00:19:16;;;;;;;14.40;2.38;;;10.00;95.60;;;;;;5057203;28;20040;-48
2022/03/10 00:21:43;;;;;;;8.98;1.70;;;10.00;95.50;;;;;;5058202;28;20017;-47
2022/03/10 00:24:08;;;;;;;11.70;1.67;;;10.00;95.70;;;;;;5057727;28;20045;-50
2022/03/10 00:26:36;;;;;;;11.98;2.25;;;10.00;95.70;;;;;;5058221;28;20036;-48
2022/03/10 00:29:01;;;;;;;15.95;2.70;;;10.00;95.70;;;;;;5057977;28;20028;-47
2022/03/10 00:31:28;;;;;;;14.20;2.90;;;10.00;95.90;;;;;;5058258;28;20021;-50
2022/03/10 00:33:53;;;;;;;14.57;2.88;;;10.10;96.10;;;;;;5057637;28;20033;-48
2022/03/10 00:36:19;;;;;;;16.30;2.65;;;10.10;96.10;;;;;;5057760;28;20036;-48
2022/03/10 00:38:45;;;;;;;13.48;2.10;;;10.20;95.50;;;;;;5057743;28;20017;-50
2022/03/10 00:41:11;;;;;;;13.43;2.42;;;10.10;95.20;;;;;;5057675;28;20055;-47
2022/03/10 00:43:36;;;;;;;15.38;2.63;;;10.10;95.10;;;;;;5057934;28;20033;-47
2022/03/10 00:46:02;;;;;;;10.45;2.60;;;10.10;95.00;;;;;;5058320;28;20420;-48
2022/03/10 00:48:28;;;;;;;12.80;3.85;;;10.10;95.20;;;;;;5057868;28;20021;-48
2022/03/10 00:50:54;;;;;;;11.82;3.13;;;10.00;95.20;;;;;;5057601;28;20109;-48
2022/03/10 00:53:20;;;;;;;13.27;2.95;;;10.00;95.20;;;;;;5057521;28;20024;-47
2022/03/10 00:55:46;;;;;;;12.65;2.20;;;10.00;95.10;;;;;;5057602;28;20033;-47
2022/03/10 00:58:12;;;;;;;16.23;2.60;;;10.00;95.20;;;;;;5057765;28;20107;-48
2022/03/10 01:00:38;;;;;;;12.93;3.22;;;9.90;95.30;;;;;;5057478;28;20036;-48
2022/03/10 01:03:05;;;;;;;13.63;2.55;;;9.80;95.50;;;;;;5057297;28;20078;-48
2022/03/10 01:05:31;;;;;;;14.30;2.53;;;9.80;95.40;;;;;;5057604;28;20110;-47
2022/03/10 01:07:57;;;;;;;13.75;2.40;;;9.80;95.50;;;;;;5057648;28;20039;-50
2022/03/10 01:10:23;;;;;;;15.50;2.47;;;9.80;95.60;;;;;;5057448;28;20013;-47
2022/03/10 01:12:50;;;;;;;10.13;2.20;;;9.80;95.50;;;;;;5057880;28;20025;-48
2022/03/10 01:15:19;;;;;;;12.30;2.40;;;9.80;95.50;;;;;;5057359;28;20437;-48
2022/03/10 01:17:45;;;;;;;10.95;2.22;;;9.80;95.40;;;;;;5057448;28;20029;-47
2022/03/10 01:20:11;;;;;;;14.32;2.10;;;9.80;95.30;;;;;;5057503;28;20021;-47
2022/03/10 01:22:37;;;;;;;12.75;2.80;;;9.80;95.20;;;;;;5057265;28;20060;-48
2022/03/10 01:25:04;;;;;;;13.88;2.85;;;9.80;95.20;;;;;;5057200;28;20115;-48
2022/03/10 01:27:31;;;;;;;9.80;1.98;;;9.70;95.40;;;;;;5057277;28;20134;-49
2022/03/10 01:29:57;;;;;;;13.85;2.78;;;9.80;95.30;;;;;;5058556;28;20032;-48
2022/03/10 01:32:23;;;;;;;18.15;3.00;;;9.80;95.20;;;;;;5061408;28;20021;-47
2022/03/10 01:34:49;;;;;;;15.70;2.85;;;9.70;95.30;;;;;;5061330;28;20112;-48
2022/03/10 01:37:15;;;;;;;14.82;2.90;;;9.80;95.30;;;;;;5061323;28;20049;-48
2022/03/10 01:39:41;;;;;;;14.55;2.17;;;9.80;95.20;;;;;;5060962;28;20025;-45
2022/03/10 01:42:07;;;;;;;15.45;2.30;;;9.70;94.90;;;;;;5061007;28;20021;-45
2022/03/10 01:44:34;;;;;;;8.80;1.40;;;9.80;95.00;;;;;;5061111;28;20147;-46
2022/03/10 01:47:01;;;;;;;7.38;2.00;;;9.70;94.80;;;;;;5060894;28;20033;-46
2022/03/10 01:49:27;;;;;;;11.35;1.60;;;9.70;94.80;;;;;;5060779;28;20397;-49
2022/03/10 01:51:53;;;;;;;7.00;1.48;;;9.70;95.00;;;;;;5061006;28;20029;-47
2022/03/10 01:54:20;;;;;;;9.45;1.83;;;9.70;95.00;;;;;;5061009;28;20092;-46
2022/03/10 01:56:47;;;;;;;7.30;1.75;;;9.70;95.30;;;;;;5060670;28;20029;-46
2022/03/10 01:59:14;;;;;;;9.00;1.67;;;9.70;95.40;;;;;;5060676;28;20467;-45
2022/03/10 02:01:40;;;;;;;11.13;1.63;;;9.80;95.40;;;;;;5060855;28;20033;-46
2022/03/10 02:04:06;;;;;;;7.03;1.40;;;9.80;95.40;;;;;;5060779;28;20028;-45
2022/03/10 02:06:32;;;;;;;6.10;0.95;;;9.80;95.30;;;;;;5060765;28;20025;-45
2022/03/10 02:11:43;;;;;;;6.30;1.08;;;9.80;95.10;;;;;;5060811;28;20036;-48
2022/03/10 02:19:37;;;;;;;5.20;1.10;;;9.70;94.90;;;;;;5060328;28;20174;-48
2022/03/10 02:22:10;;;;;;;3.55;0.82;;;9.80;94.80;;;;;;5060502;28;20297;-47
2022/03/10 02:24:38;;;;;;;8.23;1.10;;;9.70;94.80;;;;;;5060404;28;20068;-45
2022/03/10 02:27:15;;;;;;;4.97;1.08;;;9.70;94.80;;;;;;5060156;28;20110;-45
2022/03/10 02:29:43;;;;;;;5.57;1.08;;;9.70;94.70;;;;;;5059948;28;20386;-45
2022/03/10 02:32:10;;;;;;;4.28;1.15;;;9.70;94.80;;;;;;5060284;28;20025;-46
2022/03/10 02:34:36;;;;;;;4.78;1.10;;;9.60;94.80;;;;;;5060105;28;20108;-47
2022/03/10 02:37:02;;;;;;;6.07;1.30;;;9.60;94.60;;;;;;5059920;28;20032;-46
2022/03/10 02:39:28;;;;;;;8.88;1.65;;;9.60;94.80;;;;;;5059729;28;20044;-46
2022/03/10 02:41:53;;;;;;;8.27;1.60;;;9.50;94.70;;;;;;5058768;28;20026;-48
2022/03/10 02:44:19;;;;;;;8.30;1.63;;;9.50;94.80;;;;;;5060102;28;20029;-51
2022/03/10 02:46:45;;;;;;;5.95;1.17;;;9.50;94.70;;;;;;5059639;28;20068;-47
2022/03/10 02:49:11;;;;;;;9.02;1.83;;;9.50;94.50;;;;;;5059578;28;20025;-46
2022/03/10 02:51:37;;;;;;;7.75;1.67;;;9.50;94.50;;;;;;5059874;28;20017;-45
2022/03/10 02:54:03;;;;;;;6.53;1.40;;;9.40;94.40;;;;;;5059733;28;20082;-45
2022/03/10 02:56:28;;;;;;;7.40;1.38;;;9.40;94.40;;;;;;5059605;28;20067;-48
2022/03/10 02:58:54;;;;;;;4.95;1.50;;;9.30;94.20;;;;;;5060003;28;20130;-46
2022/03/10 03:01:20;;;;;;;5.93;1.35;;;9.30;94.30;;;;;;5059423;28;20025;-46
2022/03/10 03:03:46;;;;;;;4.80;1.23;;;9.20;94.10;;;;;;5059944;28;20033;-47
2022/03/10 03:06:11;;;;;;;7.95;1.98;;;9.20;94.50;;;;;;5059463;28;20094;-45
2022/03/10 03:08:37;;;;;;;9.18;1.60;;;9.20;94.40;;;;;;5059584;28;20519;-45
2022/03/10 03:11:03;;;;;;;7.63;2.22;;;9.10;94.60;;;;;;5059351;28;20077;-46
2022/03/10 03:13:28;;;;;;;8.27;1.38;;;9.20;94.70;;;;;;5059274;28;20029;-47
2022/03/10 03:15:54;;;;;;;6.82;1.52;;;9.20;94.70;;;;;;5059181;28;20017;-48
2022/03/10 03:18:20;;;;;;;9.38;2.20;;;9.20;94.50;;;;;;5059347;28;20112;-45
2022/03/10 03:20:46;;;;;;;9.98;1.95;;;9.20;94.70;;;;;;5059135;28;20029;-45
2022/03/10 03:23:12;;;;;;;7.22;2.03;;;9.20;94.70;;;;;;5059178;28;20045;-45
2022/03/10 03:25:37;;;;;;;10.52;1.55;;;9.30;94.60;;;;;;5059434;28;20029;-51
2022/03/10 03:28:04;;;;;;;8.35;1.73;;;9.30;94.50;;;;;;5059079;28;20104;-45
2022/03/10 03:30:30;;;;;;;7.55;1.25;;;9.20;94.70;;;;;;5059162;28;20030;-45
2022/03/10 03:32:55;;;;;;;7.00;1.45;;;9.20;94.50;;;;;;5058921;28;20066;-45
2022/03/10 03:35:21;;;;;;;5.28;1.45;;;9.20;94.50;;;;;;5058867;28;20047;-46
2022/03/10 03:37:47;;;;;;;7.93;1.77;;;9.20;94.20;;;;;;5059134;28;20025;-48
2022/03/10 03:40:13;;;;;;;12.57;2.85;;;9.10;94.30;;;;;;5058732;28;20090;-49
2022/03/10 03:42:38;;;;;;;13.45;2.22;;;9.00;94.30;;;;;;5058779;28;20029;-47
2022/03/10 03:45:05;;;;;;;10.07;1.90;;;9.00;94.30;;;;;;5058756;28;20029;-45
2022/03/10 03:47:31;;;;;;;8.25;1.98;;;9.00;94.40;;;;;;5057239;28;20017;-48
2022/03/10 03:49:57;;;;;;;8.13;1.80;;;8.90;94.20;;;;;;5058570;28;20028;-45
2022/03/10 03:52:23;;;;;;;9.00;1.85;;;8.90;94.40;;;;;;5058238;28;20021;-45
2022/03/10 03:54:48;;;;;;;10.27;1.60;;;8.90;94.20;;;;;;5058605;28;20422;-46
2022/03/10 03:57:14;;;;;;;9.48;2.10;;;8.80;94.40;;;;;;5058489;28;20021;-45
2022/03/10 03:59:40;;;;;;;9.45;1.88;;;8.80;94.30;;;;;;5058594;28;20097;-45
2022/03/10 04:02:06;;;;;;;12.93;2.10;;;8.80;94.30;;;;;;5058420;28;20032;-46
2022/03/10 04:04:31;;;;;;;7.32;2.00;;;8.80;94.20;;;;;;5058326;28;20496;-46
2022/03/10 04:06:57;;;;;;;11.23;2.80;;;8.80;94.40;;;;;;5058332;28;20052;-46
2022/03/10 04:09:23;;;;;;;10.52;3.00;;;8.80;94.50;;;;;;5058260;28;20029;-45
2022/03/10 04:11:50;;;;;;;13.75;4.88;;;8.80;94.40;;;;;;5058410;28;20029;-48
2022/03/10 04:14:17;;;;;;;16.48;5.50;;;8.70;94.20;;;;;;5058135;28;20023;-45
2022/03/10 04:16:43;;;;;;;13.05;4.75;;;8.70;94.20;;;;;;5057952;28;20366;-46
2022/03/10 04:19:08;;;;;;;14.65;4.82;;;8.70;94.10;;;;;;5058021;28;20090;-45
2022/03/10 04:21:34;;;;;;;13.07;5.18;;;8.60;93.90;;;;;;5058172;28;20029;-45
2022/03/10 04:24:00;;;;;;;12.40;4.97;;;8.50;94.00;;;;;;5057596;28;20095;-45
2022/03/10 04:26:26;;;;;;;14.50;5.80;;;8.50;93.90;;;;;;5058066;28;20112;-45
2022/03/10 04:28:51;;;;;;;12.13;5.15;;;8.40;93.80;;;;;;5058377;28;20027;-45
2022/03/10 04:31:17;;;;;;;10.95;4.47;;;8.30;93.70;;;;;;5057917;28;20431;-47
2022/03/10 04:33:43;;;;;;;8.98;2.95;;;8.20;93.70;;;;;;5058296;28;20021;-48
2022/03/10 04:36:09;;;;;;;9.35;3.40;;;8.20;93.50;;;;;;5057806;28;20032;-45
2022/03/10 04:38:35;;;;;;;11.93;3.08;;;8.10;93.60;;;;;;5057617;28;20116;-46
2022/03/10 04:41:01;;;;;;;8.55;2.35;;;8.00;93.60;;;;;;5057927;28;20049;-45
2022/03/10 04:43:26;;;;;;;13.70;3.03;;;7.90;93.70;;;;;;5057746;28;20029;-45
2022/03/10 04:45:52;;;;;;;8.45;2.28;;;7.90;93.70;;;;;;5057618;28;20025;-45
2022/03/10 04:48:18;;;;;;;9.45;2.80;;;7.80;93.70;;;;;;5057838;28;20028;-46
2022/03/10 04:50:44;;;;;;;10.30;3.53;;;7.80;93.60;;;;;;5057878;28;20416;-45
2022/03/10 04:53:10;;;;;;;11.32;3.17;;;7.70;93.60;;;;;;5057662;28;20116;-47
2022/03/10 04:55:36;;;;;;;12.20;2.60;;;7.70;93.60;;;;;;5057786;28;20029;-48
2022/03/10 04:58:02;;;;;;;11.60;2.60;;;7.60;93.70;;;;;;5057555;28;20103;-47
2022/03/10 05:00:28;;;;;;;10.13;2.60;;;7.60;93.90;;;;;;5057879;28;20372;-46
2022/03/10 05:02:53;;;;;;;12.13;2.50;;;7.50;93.70;;;;;;5057707;28;20029;-47
2022/03/10 05:05:19;;;;;;;10.70;2.50;;;7.50;93.70;;;;;;5059032;28;20052;-46
2022/03/10 05:07:46;;;;;;;11.15;1.95;;;7.40;93.80;;;;;;5061774;28;20025;-49
2022/03/10 05:10:15;;;;;;;12.55;2.35;;;7.50;93.80;;;;;;5060130;28;20025;-51
2022/03/10 05:12:49;;;;;;;11.18;2.25;;;7.40;93.80;;;;;;5059821;28;20318;-46
2022/03/10 05:15:22;;;;;;;14.10;2.83;;;7.40;93.90;;;;;;5061360;28;20037;-46
2022/03/10 05:17:49;;;;;;;7.68;2.30;;;7.30;94.00;;;;;;5061302;28;20058;-46
2022/03/10 05:20:15;;;;;;;10.63;2.50;;;7.30;93.80;;;;;;5061176;28;20519;-47
2022/03/10 05:22:49;;;;;;;14.23;2.88;;;7.30;93.70;;;;;;5060492;28;20075;-47
2022/03/10 05:25:16;;;;;;;10.00;2.15;;;7.20;93.70;;;;;;5059187;28;20036;-47
2022/03/10 05:27:43;;;;;;;8.25;1.50;;;7.20;93.60;;;;;;5059245;28;20029;-49
2022/03/10 05:30:10;;;;;;;9.90;2.55;;;7.20;93.30;;;;;;5059153;28;20024;-47
2022/03/10 05:32:36;;;;;;;11.40;2.95;;;7.10;93.20;;;;;;5059112;28;20029;-46
2022/03/10 05:35:04;;;;;;;8.82;3.25;;;7.00;93.10;;;;;;5059057;28;20484;-48
2022/03/10 05:37:30;;;;;;;15.95;2.97;;;7.00;93.20;;;;;;5059310;28;20024;-46
2022/03/10 05:39:56;;;;;;;14.80;3.42;;;6.90;93.30;;;;;;5060903;28;20539;-46
2022/03/10 05:42:22;;;;;;;11.63;3.53;;;6.80;92.90;;;;;;5060948;28;20033;-46
2022/03/10 05:44:48;;;;;;;11.65;3.05;;;6.80;93.10;;;;;;5060938;28;20025;-47
2022/03/10 05:47:14;;;;;;;10.63;2.70;;;6.70;93.00;;;;;;5060895;28;20056;-48
2022/03/10 05:49:40;;;;;;;12.93;3.88;;;6.60;92.80;;;;;;5061141;28;20025;-47
2022/03/10 05:52:06;;;;;;;14.35;4.38;;;6.60;93.10;;;;;;5060733;28;20025;-46
2022/03/10 05:54:32;;;;;;;13.38;3.30;;;6.50;93.30;;;;;;5061266;28;20021;-47
2022/03/10 05:56:58;;;;;;;12.07;3.58;;;6.50;93.20;;;;;;5060762;28;20025;-48
2022/03/10 05:59:24;;;;;;;13.93;3.88;;;6.50;93.10;;;;;;5060766;28;20071;-48
2022/03/10 06:01:50;;;;;;;16.75;3.65;;;6.50;93.40;;;;;;5060635;28;20064;-47
2022/03/10 06:04:16;;;;;;;14.57;3.60;;;6.40;93.30;;;;;;5060620;28;20066;-47
2022/03/10 06:06:45;;;;;;;9.57;2.45;;;6.40;93.00;;;;;;5060517;28;20484;-46
2022/03/10 06:09:11;;;;;;;7.95;2.50;;;6.40;93.00;;;;;;5060561;28;20021;-47
2022/03/10 06:11:37;;;;;;;9.30;2.58;;;6.30;93.00;;;;;;5060691;28;20082;-47
2022/03/10 06:14:03;;;;;;;12.40;3.20;;;6.30;93.00;;;;;;5060614;28;20028;-46
2022/03/10 06:16:29;;;;;;;13.40;3.08;;;6.30;93.30;;;;;;5060661;28;20040;-46
2022/03/10 06:18:55;;;;;;;11.13;3.05;;;6.30;93.40;;;;;;5060393;28;20115;-46
2022/03/10 06:21:22;;;;;;;8.68;3.15;;;6.30;93.50;;;;;;5060482;28;20154;-46
2022/03/10 06:23:48;;;;;;;9.65;2.38;;;6.30;93.20;;;;;;5060073;28;20091;-48
2022/03/10 06:26:14;;;;;;;11.98;2.58;;;6.20;93.20;;;;;;5060111;28;20029;-46
2022/03/10 06:28:41;;;;;;;9.68;2.65;;;6.20;93.40;;;;;;5060144;28;20084;-46
2022/03/10 06:31:07;;;;;;;6.93;2.00;;;6.30;93.30;;;;;;5059905;28;20459;-46
2022/03/10 06:33:33;;;;;;;7.18;2.78;;;6.40;93.50;;;;;;5060067;28;20024;-46
2022/03/10 06:35:59;;;;;;;10.88;2.55;;;6.40;93.60;;;;;;5059851;28;20133;-47
2022/03/10 06:38:25;;;;;;;6.75;2.20;;;6.40;93.40;;;;;;5060196;28;20059;-46
2022/03/10 06:40:51;;;;;;;10.10;3.15;;;6.40;92.90;;;;;;5059948;28;20056;-46
2022/03/10 06:43:18;;;;;;;12.05;3.00;;;6.40;92.70;;;;;;5060113;28;20029;-48
2022/03/10 06:45:44;;;;;;;7.65;2.50;;;6.40;92.80;;;;;;5059823;28;20091;-47
2022/03/10 06:48:10;;;;;;;6.30;1.90;;;6.40;93.20;;;;;;5059973;28;20029;-46
2022/03/10 06:50:37;;;;;;;11.00;2.85;;;6.50;93.50;;;;;;5059869;28;20075;-48
2022/03/10 06:53:03;;;;;;;11.60;2.70;;;6.60;93.80;;;;;;5059943;28;20021;-46
2022/03/10 06:55:29;;;;;;;14.13;3.58;;;6.70;93.80;;;;;;5059880;28;20070;-50
2022/03/10 06:57:55;;;;;;;14.98;4.10;;;6.70;93.80;;;;;;5059803;28;20021;-47
2022/03/10 07:00:22;;;;;;;11.13;3.75;;;6.70;93.90;;;;;;5059796;28;20029;-47
2022/03/10 07:02:48;;;;;;;13.80;3.00;;;6.80;93.90;;;;;;5059851;28;20017;-46
2022/03/10 07:05:14;;;;;;;10.70;3.10;;;6.90;93.90;;;;;;5059570;28;20036;-47
2022/03/10 07:07:40;;;;;;;9.50;2.50;;;7.00;93.40;;;;;;5059674;28;20381;-47
2022/03/10 07:10:07;;;;;;;11.15;3.00;;;7.00;93.60;;;;;;5059481;28;20033;-47
2022/03/10 07:12:41;;;;;;;12.00;3.00;;;7.00;93.70;;;;;;5059536;28;20100;-47
2022/03/10 07:15:09;;;;;;;11.10;3.15;;;7.00;93.90;;;;;;5059148;28;20091;-46
2022/03/10 07:17:34;;;;;;;8.13;2.65;;;7.10;93.60;;;;;;5059411;28;20064;-46
2022/03/10 07:20:00;;;;;;;10.10;3.00;;;7.10;93.40;;;;;;5059200;28;20032;-49
2022/03/10 07:22:26;;;;;;;8.93;3.45;;;7.10;93.20;;;;;;5058871;28;20097;-47
2022/03/10 07:24:52;;;;;;;8.30;3.20;;;7.10;93.20;;;;;;5059284;28;20063;-46
2022/03/10 07:27:18;;;;;;;12.40;3.20;;;6.90;93.10;;;;;;5058921;28;20021;-47
2022/03/10 07:29:44;;;;;;;8.68;2.58;;;7.00;93.50;;;;;;5059141;28;20039;-47
2022/03/10 07:32:10;;;;;;;9.15;2.53;;;7.00;93.40;;;;;;5059170;28;20377;-47
2022/03/10 07:34:36;;;;;;;8.45;2.50;;;6.90;93.40;;;;;;5059242;28;20025;-49
2022/03/10 07:37:02;;;;;;;9.85;2.83;;;7.00;93.60;;;;;;5059068;28;20106;-46
2022/03/10 07:39:28;;;;;;;10.50;3.22;;;7.00;93.50;;;;;;5059091;28;20021;-46
2022/03/10 07:41:53;;;;;;;7.25;2.28;;;7.00;93.40;;;;;;5059100;28;20102;-46
2022/03/10 07:44:19;;;;;;;7.10;2.95;;;7.00;93.60;;;;;;5059057;28;20029;-46
2022/03/10 07:46:46;;;;;;;7.75;2.47;;;7.00;93.50;;;;;;5058634;28;20065;-47
2022/03/10 07:49:12;;;;;;;8.52;3.45;;;7.00;93.70;;;;;;5058468;28;20021;-47
2022/03/10 07:51:40;;;;;;;11.13;3.67;;;7.00;93.70;;;;;;5058593;28;20078;-47
2022/03/10 07:54:06;;;;;;;10.77;3.40;;;7.00;93.90;;;;;;5058594;28;20021;-46
2022/03/10 07:56:32;;;;;;;9.40;3.50;;;7.10;94.00;;;;;;5058687;28;20158;-47
2022/03/10 07:58:57;;;;;;;10.43;3.75;;;7.10;93.90;;;;;;5058595;28;20494;-49
2022/03/10 08:01:24;;;;;;;7.15;2.92;;;7.20;93.70;;;;;;5058530;28;20055;-51
2022/03/10 08:03:49;;;;;;;8.73;3.08;;;7.20;93.60;;;;;;5058583;28;20052;-48
2022/03/10 08:06:16;;;;;;;11.85;3.95;;;7.20;93.90;;;;;;5058695;28;20488;-48
2022/03/10 08:08:43;;;;;;;9.90;3.45;;;7.20;94.10;;;;;;5058234;28;20496;-47
2022/03/10 08:11:09;;;;;;;11.50;3.92;;;7.30;94.20;;;;;;5058035;28;20040;-48
2022/03/10 08:13:35;;;;;;;10.43;4.28;;;7.30;94.40;;;;;;5058174;28;20025;-48
2022/03/10 08:16:01;;;;;;;10.40;4.97;;;7.40;94.50;;;;;;5058126;28;20496;-47
2022/03/10 08:18:29;;;;;;;9.43;4.68;;;7.50;94.50;;;;;;5058200;28;20029;-48
2022/03/10 08:20:57;;;;;;;12.25;5.13;;;7.70;94.60;;;;;;5058273;28;20025;-48
2022/03/10 08:23:23;;;;;;;19.05;7.65;;;7.70;94.70;;;;;;5057898;28;20044;-54
2022/03/10 08:25:49;;;;;;;12.48;6.97;;;7.90;94.80;;;;;;5057873;28;20033;-47
2022/03/10 08:28:16;;;;;;;15.30;7.43;;;8.00;94.90;;;;;;5058139;28;20495;-47
2022/03/10 08:30:42;;;;;;;16.67;7.35;;;8.20;95.20;;;;;;5057727;28;20052;-48
2022/03/10 08:33:07;;;;;;;16.05;7.10;;;8.40;95.30;;;;;;5058078;28;20021;-47
2022/03/10 08:35:33;;;;;;;19.35;7.15;;;8.60;95.30;;;;;;5057861;28;20036;-47
2022/03/10 08:37:59;;;;;;;19.55;6.65;;;8.80;95.10;;;;;;5057800;28;20052;-49
2022/03/10 08:40:25;;;;;;;14.77;6.10;;;8.90;95.00;;;;;;5057151;28;20025;-49
2022/03/10 08:42:51;;;;;;;14.32;5.85;;;9.00;95.00;;;;;;5057698;28;20025;-47
2022/03/10 08:45:18;;;;;;;19.95;5.93;;;9.10;95.10;;;;;;5057640;28;20032;-49
2022/03/10 08:47:44;;;;;;;15.98;6.28;;;9.30;95.40;;;;;;5057890;28;20059;-47
2022/03/10 08:50:11;;;;;;;20.58;6.53;;;9.40;95.20;;;;;;5057640;28;20025;-50
2022/03/10 08:52:38;;;;;;;18.15;5.95;;;9.60;94.90;;;;;;5057824;28;20053;-49
2022/03/10 08:55:05;;;;;;;19.00;6.28;;;9.60;94.70;;;;;;5057865;28;20492;-47
2022/03/10 08:57:32;;;;;;;20.13;5.07;;;9.70;94.30;;;;;;5057522;28;20095;-47
2022/03/10 08:59:58;;;;;;;17.20;4.75;;;9.70;94.30;;;;;;5057888;28;20023;-47
2022/03/10 09:02:24;;;;;;;22.23;6.25;;;9.80;94.60;;;;;;5057515;28;20447;-48
2022/03/10 09:04:50;;;;;;;21.08;6.22;;;10.00;94.90;;;;;;5057719;28;20119;-52
2022/03/10 09:07:16;;;;;;;20.05;5.35;;;10.40;95.30;;;;;;5057717;28;20071;-47
2022/03/10 09:09:42;;;;;;;19.40;4.72;;;10.90;94.70;;;;;;5057704;28;20021;-55
2022/03/10 09:12:08;;;;;;;16.52;4.50;;;11.40;94.30;;;;;;5057424;28;20039;-51
2022/03/10 09:14:34;;;;;;;19.33;4.53;;;12.10;94.10;;;;;;5057441;28;20025;-54
2022/03/10 09:17:00;;;;;;;18.20;4.60;;;12.70;93.30;;;;;;5057621;28;20049;-52
2022/03/10 09:19:26;;;;;;;12.00;3.83;;;13.40;93.20;;;;;;5057433;28;20017;-48
2022/03/10 09:21:52;;;;;;;17.30;4.75;;;14.00;88.70;;;;;;5057370;28;20128;-52
2022/03/10 09:24:18;;;;;;;13.48;4.10;;;14.40;88.20;;;;;;5057135;28;20033;-52
2022/03/10 09:26:44;;;;;;;18.20;4.32;;;14.80;91.10;;;;;;5057254;28;20108;-52
2022/03/10 09:29:11;;;;;;;16.15;4.03;;;15.10;83.80;;;;;;5057463;28;20096;-52
2022/03/10 09:31:37;;;;;;;20.60;4.55;;;15.60;88.00;;;;;;5057175;28;20098;-51
2022/03/10 09:34:04;;;;;;;13.63;3.65;;;15.90;80.20;;;;;;5056507;28;20013;-53
2022/03/10 09:36:30;;;;;;;23.45;4.88;;;16.10;69.50;;;;;;5056733;28;20028;-54
2022/03/10 09:38:57;;;;;;;16.83;3.90;;;16.10;76.70;;;;;;5056839;28;20025;-52
2022/03/10 09:41:23;;;;;;;18.83;4.57;;;16.00;68.40;;;;;;5056254;28;20392;-52
2022/03/10 09:43:49;;;;;;;15.07;3.60;;;15.60;67.30;;;;;;5056579;28;20028;-50
2022/03/10 09:46:15;;;;;;;19.45;4.15;;;15.10;70.30;;;;;;5056587;28;20104;-49
2022/03/10 09:48:41;;;;;;;15.75;4.22;;;14.80;69.10;;;;;;5056721;28;20013;-52
2022/03/10 09:51:08;;;;;;;12.93;3.50;;;14.60;70.00;;;;;;5057684;28;20480;-49
2022/03/10 09:53:35;;;;;;;14.10;3.30;;;14.30;70.00;;;;;;5060550;28;20488;-52
2022/03/10 09:56:04;;;;;;;14.35;3.83;;;14.40;69.50;;;;;;5060493;28;20037;-54
2022/03/10 09:58:31;;;;;;;15.25;3.53;;;14.70;66.90;;;;;;5060632;28;20040;-51
2022/03/10 10:01:00;;;;;;;14.63;3.40;;;15.20;72.90;;;;;;5060139;28;20040;-50
2022/03/10 10:03:26;;;;;;;13.70;3.08;;;15.70;71.60;;;;;;5060559;28;20017;-51
2022/03/10 10:05:57;;;;;;;18.13;3.58;;;16.10;64.80;;;;;;5060021;28;20358;-50
2022/03/10 10:08:23;;;;;;;14.55;3.42;;;16.30;67.90;;;;;;5059960;28;20017;-49
2022/03/10 10:10:51;;;;;;;12.73;3.15;;;16.20;64.50;;;;;;5060155;28;20036;-52
2022/03/10 10:13:34;;;;;;;16.55;3.35;;;16.40;63.30;;;;;;5060050;28;20021;-52
2022/03/10 10:16:06;;;;;;;14.33;3.33;;;16.60;61.10;;;;;;5060115;28;20083;-53
2022/03/10 10:18:33;;;;;;;12.10;2.50;;;17.00;62.70;;;;;;5060062;28;20031;-55
2022/03/10 10:21:00;;;;;;;12.20;3.38;;;17.10;60.10;;;;;;5060242;28;20036;-54
2022/03/10 10:23:31;;;;;;;13.40;2.80;;;17.50;64.10;;;;;;5059965;28;20515;-50
2022/03/10 10:26:04;;;;;;;14.18;2.78;;;17.80;60.00;;;;;;5059712;28;20388;-51
2022/03/10 10:28:31;;;;;;;13.23;2.90;;;18.10;62.40;;;;;;5059986;28;20021;-49
2022/03/10 10:31:07;;;;;;;14.70;3.20;;;18.30;60.80;;;;;;5059639;28;20017;-51
2022/03/10 10:33:35;;;;;;;17.27;3.65;;;18.40;58.40;;;;;;5059991;28;20029;-52
2022/03/10 10:36:26;;;;;;;13.77;3.25;;;18.30;60.30;;;;;;5059609;28;20055;-53
2022/03/10 10:39:13;;;;;;;17.05;3.15;;;18.20;61.90;;;;;;5059550;28;20041;-55
2022/03/10 10:41:41;;;;;;;11.35;3.08;;;18.20;53.80;;;;;;5060037;28;20017;-52
2022/03/10 10:44:10;;;;;;;17.92;3.53;;;18.40;57.90;;;;;;5059808;28;20396;-53
2022/03/10 10:46:41;;;;;;;14.57;2.90;;;18.50;58.50;;;;;;5059751;28;20451;-47
2022/03/10 10:49:20;;;;;;;15.23;3.63;;;19.00;58.20;;;;;;5059583;28;20439;-49
2022/03/10 10:51:53;;;;;;;13.20;3.40;;;19.30;58.00;;;;;;5059958;28;20108;-48
2022/03/10 10:54:19;;;;;;;15.77;4.30;;;19.40;57.60;;;;;;5059736;28;20056;-51
2022/03/10 10:56:49;;;;;;;14.23;2.70;;;19.60;53.80;;;;;;5059657;28;20036;-51
2022/03/10 10:59:34;;;;;;;13.85;3.58;;;19.90;59.40;;;;;;5059833;28;20029;-50
2022/03/10 11:02:20;;;;;;;15.30;3.65;;;20.20;57.50;;;;;;5059958;28;20040;-49
2022/03/10 11:04:51;;;;;;;10.75;2.50;;;20.40;59.50;;;;;;5057914;28;20060;-47
2022/03/10 11:07:18;;;;;;;11.00;2.50;;;20.30;55.50;;;;;;5059415;28;20021;-51
2022/03/10 11:09:47;;;;;;;12.35;3.08;;;20.20;55.00;;;;;;5059630;28;20029;-50
2022/03/10 11:12:15;;;;;;;10.65;2.90;;;20.00;52.80;;;;;;5059393;28;20483;-52
2022/03/10 11:14:42;;;;;;;13.77;3.28;;;20.10;56.50;;;;;;5059516;28;20036;-56
2022/03/10 11:17:08;;;;;;;12.15;3.53;;;20.00;48.80;;;;;;5059478;28;20059;-49
2022/03/10 11:19:37;;;;;;;10.93;2.45;;;20.40;52.10;;;;;;5059330;28;20021;-50
2022/03/10 11:22:09;;;;;;;14.30;3.10;;;20.70;53.20;;;;;;5059384;28;20112;-51
2022/03/10 11:25:12;;;;;;;12.48;2.75;;;20.90;57.40;;;;;;5058833;28;20049;-54
2022/03/10 11:28:01;;;;;;;11.93;2.17;;;20.90;45.40;;;;;;5059277;28;20036;-48
2022/03/10 11:30:29;;;;;;;13.00;2.90;;;20.70;54.20;;;;;;5059007;28;20021;-50
2022/03/10 11:33:10;;;;;;;9.77;2.33;;;20.80;50.10;;;;;;5059045;28;20032;-53
2022/03/10 11:35:43;;;;;;;10.40;2.28;;;21.10;55.00;;;;;;5059162;28;20104;-56
2022/03/10 11:38:10;;;;;;;12.13;2.75;;;21.50;48.40;;;;;;5059090;28;20013;-52
2022/03/10 11:40:41;;;;;;;12.63;2.58;;;21.50;47.30;;;;;;5058867;28;20029;-49
2022/03/10 11:43:07;;;;;;;12.57;2.70;;;21.50;49.90;;;;;;5059252;28;20576;-52
2022/03/10 11:45:33;;;;;;;11.73;2.15;;;21.40;48.10;;;;;;5058655;28;20122;-52
2022/03/10 11:48:23;;;;;;;12.70;3.10;;;21.60;52.10;;;;;;5058770;28;20511;-52
2022/03/10 11:50:50;;;;;;;12.52;2.83;;;21.90;51.70;;;;;;5058583;28;20025;-52
2022/03/10 11:53:16;;;;;;;9.00;2.20;;;22.10;44.90;;;;;;5058700;28;20128;-53
2022/03/10 11:55:48;;;;;;;11.27;2.40;;;22.30;50.30;;;;;;5058992;28;20049;-51
2022/03/10 11:58:16;;;;;;;11.63;2.38;;;22.30;50.30;;;;;;5058792;28;20013;-54
2022/03/10 12:00:46;;;;;;;10.02;2.40;;;22.10;49.50;;;;;;5058384;28;20025;-52
2022/03/10 12:03:30;;;;;;;10.70;2.80;;;22.30;46.40;;;;;;5058456;28;20021;-52
2022/03/10 12:06:03;;;;;;;8.70;2.00;;;22.70;50.30;;;;;;5058790;28;20039;-49
2022/03/10 12:08:35;;;;;;;11.63;2.60;;;22.90;48.90;;;;;;5058581;28;20343;-48
2022/03/10 12:11:06;;;;;;;9.02;2.25;;;23.10;49.10;;;;;;5058477;28;20036;-52
2022/03/10 12:13:36;;;;;;;9.82;2.17;;;23.10;50.90;;;;;;5058563;28;20017;-53
2022/03/10 12:16:07;;;;;;;11.18;2.22;;;23.30;49.10;;;;;;5058289;28;20036;-49
2022/03/10 12:18:39;;;;;;;10.48;2.25;;;23.10;47.20;;;;;;5058566;28;20025;-50
2022/03/10 12:21:24;;;;;;;9.55;1.90;;;22.90;45.70;;;;;;5058288;28;20029;-55
2022/03/10 12:24:04;;;;;;;7.60;2.63;;;22.40;42.60;;;;;;5057788;28;20069;-51
2022/03/10 12:26:46;;;;;;;9.48;2.80;;;22.40;47.40;;;;;;5057761;28;20442;-53
2022/03/10 12:29:13;;;;;;;10.65;2.63;;;22.20;45.00;;;;;;5058019;28;20029;-55
2022/03/10 12:31:41;;;;;;;10.68;2.58;;;22.50;48.70;;;;;;5057923;28;20032;-49
2022/03/10 12:34:12;;;;;;;9.38;2.20;;;22.80;49.20;;;;;;5057956;28;20600;-47
2022/03/10 12:36:49;;;;;;;12.80;2.53;;;23.10;47.50;;;;;;5057923;28;20025;-53
2022/03/10 12:39:27;;;;;;;12.35;2.40;;;23.50;48.40;;;;;;5057636;28;20029;-49
2022/03/10 12:42:01;;;;;;;11.18;2.30;;;23.70;48.60;;;;;;5057975;28;20389;-50
2022/03/10 12:44:27;;;;;;;;;;;23.50;47.50;;;;;;5058655;28;20063;-49
2022/03/10 12:46:53;;;;;;;11.35;3.13;;;23.60;48.00;;;;;;5057643;28;20360;-48
2022/03/10 12:49:42;;;;;;;8.30;2.10;;;23.10;48.20;;;;;;5057625;28;20449;-55
2022/03/10 12:52:13;;;;;;;10.48;2.63;;;23.30;48.90;;;;;;5058282;28;20350;-52
2022/03/10 12:54:40;;;;;;;12.10;2.78;;;23.50;47.50;;;;;;5057875;28;20043;-55
2022/03/10 12:57:07;;;;;;;12.48;2.60;;;23.20;47.40;;;;;;5057589;28;20029;-50